createdAt,value
2022-10-13T00:01:14.461Z,18.17
2022-10-13T00:03:42.846Z,18.08
2022-10-13T00:06:17.643Z,18.30
2022-10-13T00:08:45.615Z,18.15
2022-10-13T00:11:18.869Z,18.00
2022-10-13T00:13:46.614Z,17.08
2022-10-13T00:16:15.348Z,16.10
2022-10-13T00:18:42.909Z,17.05
2022-10-13T00:21:18.392Z,17.70
2022-10-13T00:23:46.992Z,16.87
2022-10-13T00:26:17.549Z,17.25
2022-10-13T00:28:48.447Z,16.50
2022-10-13T00:31:29.942Z,16.10
2022-10-13T00:33:58.455Z,17.33
2022-10-13T00:36:25.926Z,17.10
2022-10-13T00:38:53.515Z,17.02
2022-10-13T00:41:21.410Z,16.92
2022-10-13T00:43:54.597Z,17.05
2022-10-13T00:46:22.346Z,17.12
2022-10-13T00:48:55.879Z,15.98
2022-10-13T00:51:24.752Z,15.43
2022-10-13T00:53:53.029Z,16.02
2022-10-13T00:56:24.343Z,16.08
2022-10-13T00:58:51.987Z,16.62
2022-10-13T01:01:19.163Z,16.62
2022-10-13T01:03:46.145Z,16.27
2022-10-13T01:06:14.337Z,15.80
2022-10-13T01:08:41.544Z,16.75
2022-10-13T01:11:33.557Z,14.60
2022-10-13T01:14:15.765Z,16.17
2022-10-13T01:16:55.946Z,14.85
2022-10-13T01:20:05.822Z,14.13
2022-10-13T01:22:45.581Z,14.77
2022-10-13T01:25:20.413Z,16.00
2022-10-13T01:28:14.870Z,13.82
2022-10-13T01:31:08.496Z,13.77
2022-10-13T01:33:39.165Z,14.00
2022-10-13T01:36:14.604Z,13.77
2022-10-13T01:39:17.585Z,13.88
2022-10-13T01:41:50.195Z,14.25
2022-10-13T01:44:26.384Z,13.77
2022-10-13T01:46:54.065Z,13.40
2022-10-13T01:49:24.709Z,14.57
2022-10-13T01:51:52.067Z,14.80
2022-10-13T01:54:19.351Z,14.48
2022-10-13T01:56:54.082Z,14.43
2022-10-13T01:59:23.209Z,15.55
2022-10-13T02:02:38.325Z,15.25
2022-10-13T02:05:35.127Z,15.02
2022-10-13T02:08:08.037Z,14.13
2022-10-13T02:10:42.917Z,14.90
2022-10-13T02:13:11.577Z,15.70
2022-10-13T02:15:46.368Z,14.95
2022-10-13T02:18:15.391Z,15.05
2022-10-13T02:20:44.400Z,15.07
2022-10-13T02:23:14.782Z,14.05
2022-10-13T02:25:42.672Z,14.15
2022-10-13T02:28:11.214Z,13.95
2022-10-13T02:30:43.071Z,13.90
2022-10-13T02:33:11.260Z,16.05
2022-10-13T02:35:39.130Z,16.17
2022-10-13T02:38:06.619Z,16.25
2022-10-13T02:40:34.132Z,16.92
2022-10-13T02:43:01.273Z,15.85
2022-10-13T02:45:28.293Z,17.60
2022-10-13T02:47:56.282Z,16.90
2022-10-13T02:50:23.289Z,15.82
2022-10-13T02:52:50.677Z,15.43
2022-10-13T02:55:18.049Z,16.55
2022-10-13T02:57:46.018Z,15.30
2022-10-13T03:00:16.842Z,15.70
2022-10-13T03:02:44.441Z,15.90
2022-10-13T03:05:11.583Z,15.18
2022-10-13T03:07:38.569Z,14.75
2022-10-13T03:10:06.590Z,15.05
2022-10-13T03:12:33.780Z,14.85
2022-10-13T03:15:00.802Z,14.63
2022-10-13T03:17:28.220Z,14.32
2022-10-13T03:19:55.189Z,14.52
2022-10-13T03:22:22.552Z,14.48
2022-10-13T03:24:52.213Z,14.40
2022-10-13T03:27:19.201Z,13.55
2022-10-13T03:29:46.292Z,13.85
2022-10-13T03:32:13.857Z,14.05
2022-10-13T03:34:40.854Z,14.77
2022-10-13T03:37:07.912Z,13.52
2022-10-13T03:39:39.318Z,13.02
2022-10-13T03:42:07.479Z,12.73
2022-10-13T03:44:34.495Z,12.57
2022-10-13T03:47:01.811Z,12.80
2022-10-13T03:49:28.789Z,13.93
2022-10-13T03:51:55.808Z,12.95
2022-10-13T03:54:23.115Z,13.30
2022-10-13T03:56:53.246Z,12.75
2022-10-13T03:59:20.214Z,13.57
2022-10-13T04:01:47.555Z,14.27
2022-10-13T04:04:14.929Z,13.88
2022-10-13T04:06:42.595Z,13.90
2022-10-13T04:09:09.608Z,13.45
2022-10-13T04:11:36.930Z,12.57
2022-10-13T04:14:04.141Z,12.48
2022-10-13T04:16:31.801Z,12.48
2022-10-13T04:19:03.894Z,12.63
2022-10-13T04:21:33.436Z,12.37
2022-10-13T04:24:01.497Z,11.55
2022-10-13T04:26:31.205Z,12.15
2022-10-13T04:28:58.939Z,11.38
2022-10-13T04:31:28.901Z,11.77
2022-10-13T04:33:55.963Z,12.37
2022-10-13T04:36:23.720Z,10.00
2022-10-13T04:38:51.842Z,10.13
2022-10-13T04:41:19.609Z,10.50
2022-10-13T04:43:50.537Z,8.90
2022-10-13T04:46:23.541Z,10.18
2022-10-13T04:48:51.857Z,9.48
2022-10-13T04:51:22.480Z,9.90
2022-10-13T04:53:54.659Z,10.27
2022-10-13T04:56:21.922Z,10.23
2022-10-13T04:58:48.981Z,11.07
2022-10-13T05:01:21.853Z,10.38
2022-10-13T05:03:54.441Z,9.35
2022-10-13T05:06:27.546Z,10.00
2022-10-13T05:08:56.310Z,10.50
2022-10-13T05:11:24.366Z,10.73
2022-10-13T05:13:51.461Z,8.82
2022-10-13T05:16:20.999Z,10.05
2022-10-13T05:18:49.654Z,9.98
2022-10-13T05:21:19.293Z,9.32
2022-10-13T05:23:46.862Z,9.23
2022-10-13T05:26:16.023Z,9.38
2022-10-13T05:28:43.867Z,9.07
2022-10-13T05:31:22.160Z,8.75
2022-10-13T05:33:50.725Z,9.23
2022-10-13T05:36:25.479Z,9.10
2022-10-13T05:42:23.640Z,10.18
2022-10-13T05:44:51.259Z,10.23
2022-10-13T05:47:18.455Z,10.27
2022-10-13T05:53:03.025Z,9.85
2022-10-13T05:55:31.609Z,9.43
2022-10-13T05:58:17.169Z,10.80
2022-10-13T06:06:42.943Z,8.98
2022-10-13T06:09:10.311Z,11.25
2022-10-13T06:11:37.743Z,9.88
2022-10-13T06:14:06.054Z,9.40
2022-10-13T06:16:36.288Z,10.48
2022-10-13T06:19:05.479Z,10.00
2022-10-13T06:21:36.804Z,9.95
2022-10-13T06:24:04.369Z,11.95
2022-10-13T06:26:31.354Z,10.93
2022-10-13T06:31:45.462Z,11.65
2022-10-13T06:34:13.018Z,10.07
2022-10-13T06:36:43.682Z,9.70
2022-10-13T06:39:11.913Z,9.98
2022-10-13T06:41:39.213Z,8.75
2022-10-13T06:44:06.293Z,7.90
2022-10-13T06:46:33.488Z,7.28
2022-10-13T06:49:00.837Z,6.93
2022-10-13T06:51:28.817Z,7.62
2022-10-13T06:53:57.134Z,6.40
2022-10-13T06:56:25.827Z,6.45
2022-10-13T06:58:53.020Z,6.10
2022-10-13T07:01:20.139Z,6.82
2022-10-13T07:03:51.303Z,5.55
2022-10-13T07:06:20.135Z,5.75
2022-10-13T07:08:47.450Z,5.97
2022-10-13T07:11:16.591Z,5.20
2022-10-13T07:13:47.972Z,4.87
2022-10-13T07:16:17.463Z,5.00
2022-10-13T07:18:44.508Z,5.22
2022-10-13T07:21:11.547Z,5.22
2022-10-13T07:23:38.840Z,6.45
2022-10-13T07:26:11.120Z,5.15
2022-10-13T07:28:38.817Z,4.60
2022-10-13T07:31:11.822Z,6.00
2022-10-13T07:33:39.475Z,5.93
2022-10-13T07:36:08.047Z,5.15
2022-10-13T07:38:35.056Z,5.50
2022-10-13T07:41:03.905Z,6.30
2022-10-13T07:43:31.387Z,5.82
2022-10-13T07:46:00.497Z,5.00
2022-10-13T07:48:28.529Z,5.85
2022-10-13T07:50:57.348Z,5.75
2022-10-13T07:53:24.413Z,6.18
2022-10-13T07:55:51.737Z,5.43
2022-10-13T07:58:18.735Z,6.97
2022-10-13T08:00:45.701Z,5.85
2022-10-13T08:03:12.961Z,6.78
2022-10-13T08:05:40.480Z,7.43
2022-10-13T08:08:07.518Z,8.45
2022-10-13T08:10:34.817Z,6.53
2022-10-13T08:13:01.807Z,7.75
2022-10-13T08:15:28.884Z,7.97
2022-10-13T08:17:56.221Z,6.53
2022-10-13T08:20:28.835Z,6.18
2022-10-13T08:23:03.567Z,6.68
2022-10-13T08:25:30.935Z,6.70
2022-10-13T08:28:00.476Z,5.55
2022-10-13T08:30:28.083Z,5.50
2022-10-13T08:32:55.186Z,7.05
2022-10-13T08:35:22.234Z,6.50
2022-10-13T08:37:49.560Z,7.12
2022-10-13T08:40:19.950Z,6.30
2022-10-13T08:42:47.138Z,5.87
2022-10-13T08:48:18.227Z,5.87
2022-10-13T08:50:49.008Z,5.78
2022-10-13T08:53:23.332Z,6.15
2022-10-13T08:56:10.512Z,7.28
2022-10-13T08:58:42.877Z,7.37
2022-10-13T09:01:20.438Z,7.15
2022-10-13T09:03:55.242Z,6.30
2022-10-13T09:06:41.997Z,5.90
2022-10-13T09:09:15.444Z,6.53
2022-10-13T09:11:46.334Z,5.65
2022-10-13T09:14:24.540Z,6.50
2022-10-13T09:16:55.721Z,7.05
2022-10-13T09:19:34.037Z,7.72
2022-10-13T09:22:14.592Z,7.57
2022-10-13T09:24:41.645Z,8.30
2022-10-13T09:27:15.212Z,9.18
2022-10-13T09:29:43.568Z,8.57
2022-10-13T09:32:19.674Z,8.75
2022-10-13T09:34:47.910Z,9.77
2022-10-13T09:37:25.542Z,9.10
2022-10-13T09:40:13.491Z,9.45
2022-10-13T09:42:40.938Z,9.70
2022-10-13T09:45:17.497Z,8.68
2022-10-13T09:47:53.791Z,7.60
2022-10-13T09:50:30.141Z,8.02
2022-10-13T09:53:34.450Z,7.65
2022-10-13T09:56:09.351Z,8.37
2022-10-13T09:58:43.092Z,8.57
2022-10-13T10:01:19.008Z,7.80
2022-10-13T10:03:46.660Z,8.10
2022-10-13T10:06:15.981Z,8.77
2022-10-13T10:09:02.629Z,8.05
2022-10-13T10:11:39.286Z,7.53
2022-10-13T10:14:26.465Z,8.20
2022-10-13T10:17:28.516Z,8.48
2022-10-13T10:20:17.212Z,8.15
2022-10-13T10:22:48.222Z,8.20
2022-10-13T10:25:47.484Z,9.18
2022-10-13T10:29:07.850Z,8.13
2022-10-13T10:32:15.371Z,8.38
2022-10-13T10:34:50.889Z,8.52
2022-10-13T10:37:40.827Z,8.70
2022-10-13T10:40:46.171Z,9.68
2022-10-13T10:43:31.893Z,8.98
2022-10-13T10:45:59.949Z,9.20
2022-10-13T10:48:38.293Z,9.68
2022-10-13T10:51:09.095Z,9.38
2022-10-13T10:53:39.894Z,9.55
2022-10-13T10:56:27.456Z,10.10
2022-10-13T10:59:02.028Z,9.20
2022-10-13T11:01:33.715Z,9.88
2022-10-13T11:04:28.752Z,10.75
2022-10-13T11:06:56.023Z,10.40
2022-10-13T11:09:41.140Z,10.07
2022-10-13T11:12:20.803Z,10.02
2022-10-13T11:15:08.344Z,9.35
2022-10-13T11:17:38.003Z,9.57
2022-10-13T11:20:17.941Z,8.82
2022-10-13T11:23:00.589Z,9.68
2022-10-13T11:25:47.598Z,9.60
2022-10-13T11:28:21.348Z,9.60
2022-10-13T11:30:50.748Z,8.55
2022-10-13T11:33:39.797Z,9.27
2022-10-13T11:36:31.802Z,8.85
2022-10-13T11:39:17.625Z,9.95
2022-10-13T11:41:58.591Z,9.80
2022-10-13T11:44:34.533Z,8.05
2022-10-13T11:47:40.429Z,9.40
2022-10-13T11:50:21.291Z,8.38
2022-10-13T11:52:58.086Z,8.25
2022-10-13T11:55:37.135Z,9.27
2022-10-13T11:58:16.078Z,8.65
2022-10-13T12:01:13.776Z,8.02
2022-10-13T12:03:43.879Z,9.25
2022-10-13T12:06:20.645Z,8.90
2022-10-13T12:08:49.459Z,8.90
2022-10-13T12:11:39.614Z,7.90
2022-10-13T12:14:16.794Z,8.18
2022-10-13T12:19:29.323Z,8.13
2022-10-13T12:21:59.048Z,8.57
2022-10-13T12:24:28.998Z,8.63
2022-10-13T12:26:57.359Z,8.60
2022-10-13T12:29:27.484Z,8.18
2022-10-13T12:31:55.316Z,9.30
2022-10-13T12:34:32.813Z,9.02
2022-10-13T12:37:03.161Z,8.88
2022-10-13T12:39:32.303Z,9.30
2022-10-13T12:42:01.239Z,8.65
2022-10-13T12:44:30.433Z,8.65
2022-10-13T12:47:02.269Z,8.95
2022-10-13T12:49:32.022Z,7.85
2022-10-13T12:52:24.123Z,9.02
2022-10-13T12:54:55.973Z,8.10
2022-10-13T12:57:36.189Z,8.50
2022-10-13T13:00:06.094Z,8.63
2022-10-13T13:02:33.733Z,8.68
2022-10-13T13:05:00.713Z,8.73
2022-10-13T13:07:37.058Z,7.87
2022-10-13T13:10:20.460Z,8.93
2022-10-13T13:12:49.636Z,9.57
2022-10-13T13:15:26.002Z,8.70
2022-10-13T13:17:58.719Z,8.13
2022-10-13T13:20:31.774Z,8.50
2022-10-13T13:22:59.595Z,9.35
2022-10-13T13:25:27.052Z,7.12
2022-10-13T13:27:54.262Z,7.68
2022-10-13T13:30:23.443Z,7.90
2022-10-13T13:32:51.450Z,8.18
2022-10-13T13:35:18.951Z,7.87
2022-10-13T13:37:50.400Z,7.80
2022-10-13T13:40:23.063Z,8.10
2022-10-13T13:42:50.619Z,7.80
2022-10-13T13:45:20.937Z,7.25
2022-10-13T13:47:49.872Z,7.75
2022-10-13T13:50:25.941Z,7.30
2022-10-13T13:52:56.601Z,7.72
2022-10-13T13:55:24.351Z,7.43
2022-10-13T13:57:51.370Z,8.48
2022-10-13T14:00:18.993Z,8.55
2022-10-13T14:02:50.536Z,8.70
2022-10-13T14:05:17.713Z,9.55
2022-10-13T14:07:47.600Z,7.80
2022-10-13T14:10:14.912Z,8.25
2022-10-13T14:12:41.894Z,8.93
2022-10-13T14:15:09.481Z,7.20
2022-10-13T14:17:36.883Z,7.85
2022-10-13T14:20:04.523Z,8.15
2022-10-13T14:22:33.218Z,7.53
2022-10-13T14:25:00.489Z,8.02
2022-10-13T14:27:27.505Z,8.07
2022-10-13T14:29:55.853Z,8.27
2022-10-13T14:32:23.405Z,8.18
2022-10-13T14:34:50.535Z,8.07
2022-10-13T14:37:22.158Z,8.20
2022-10-13T14:39:50.714Z,7.33
2022-10-13T14:42:17.714Z,7.95
2022-10-13T14:44:45.187Z,7.78
2022-10-13T14:47:12.466Z,7.85
2022-10-13T14:49:39.526Z,8.15
2022-10-13T14:52:06.759Z,8.25
2022-10-13T14:54:34.107Z,7.75
2022-10-13T14:57:05.221Z,7.95
2022-10-13T14:59:32.294Z,8.25
2022-10-13T15:01:59.642Z,8.18
2022-10-13T15:04:26.671Z,7.78
2022-10-13T15:06:53.659Z,11.02
2022-10-13T15:09:25.646Z,8.77
2022-10-13T15:12:00.714Z,9.20
2022-10-13T15:14:29.180Z,8.80
2022-10-13T15:16:56.793Z,8.60
2022-10-13T15:19:25.198Z,8.93
2022-10-13T15:21:53.218Z,8.65
2022-10-13T15:24:20.302Z,8.63
2022-10-13T15:26:52.184Z,8.07
2022-10-13T15:29:19.470Z,8.63
2022-10-13T15:31:46.631Z,8.98
2022-10-13T15:34:13.704Z,8.38
2022-10-13T15:36:40.966Z,9.25
2022-10-13T15:39:10.757Z,9.82
2022-10-13T15:41:37.737Z,9.50
2022-10-13T15:44:05.099Z,8.55
2022-10-13T15:46:32.075Z,10.27
2022-10-13T15:48:59.975Z,9.15
2022-10-13T15:51:27.338Z,9.35
2022-10-13T15:53:55.293Z,10.32
2022-10-13T15:56:22.310Z,9.73
2022-10-13T15:58:49.716Z,10.25
2022-10-13T16:01:16.899Z,10.40
2022-10-13T16:03:44.274Z,9.80
2022-10-13T16:06:12.635Z,10.00
2022-10-13T16:08:40.878Z,11.77
2022-10-13T16:11:13.643Z,11.05
2022-10-13T16:13:41.167Z,11.45
2022-10-13T16:16:08.639Z,13.88
2022-10-13T16:18:37.381Z,13.23
2022-10-13T16:21:22.952Z,14.65
2022-10-13T16:23:50.462Z,15.07
2022-10-13T16:26:18.211Z,17.08
2022-10-13T16:28:46.069Z,18.12
2022-10-13T16:31:15.604Z,18.50
2022-10-13T16:33:44.193Z,16.08
2022-10-13T16:36:16.897Z,15.45
2022-10-13T16:38:44.832Z,16.03
2022-10-13T16:41:16.911Z,18.87
2022-10-13T16:43:45.308Z,27.25
2022-10-13T16:46:13.790Z,29.65
2022-10-13T16:48:41.506Z,26.90
2022-10-13T16:51:12.319Z,26.85
2022-10-13T16:53:39.384Z,20.15
2022-10-13T16:56:07.495Z,15.88
2022-10-13T16:58:35.307Z,14.05
2022-10-13T17:01:08.812Z,14.63
2022-10-13T17:03:39.502Z,14.67
2022-10-13T17:06:07.034Z,15.27
2022-10-13T17:08:34.181Z,15.07
2022-10-13T17:11:02.534Z,14.98
2022-10-13T17:13:30.426Z,16.37
2022-10-13T17:15:57.473Z,16.90
2022-10-13T17:18:26.233Z,17.33
2022-10-13T17:20:55.381Z,20.25
2022-10-13T17:23:25.972Z,23.05
2022-10-13T17:25:54.315Z,20.27
2022-10-13T17:28:21.820Z,19.30
2022-10-13T17:30:58.077Z,18.92
2022-10-13T17:33:26.823Z,20.20
2022-10-13T17:36:02.236Z,21.37
2022-10-13T17:38:29.817Z,20.12
2022-10-13T17:41:01.379Z,19.55
2022-10-13T17:43:29.120Z,19.42
2022-10-13T17:46:17.895Z,20.73
2022-10-13T17:48:55.618Z,19.42
2022-10-13T17:51:23.281Z,22.67
2022-10-13T17:53:51.807Z,28.70
2022-10-13T17:56:21.666Z,22.35
2022-10-13T17:58:50.037Z,16.33
2022-10-13T18:01:20.043Z,16.17
2022-10-13T18:03:50.364Z,17.90
2022-10-13T18:06:19.656Z,16.08
2022-10-13T18:08:46.876Z,16.55
2022-10-13T18:11:16.711Z,16.80
2022-10-13T18:13:44.560Z,17.87
2022-10-13T18:16:16.956Z,18.08
2022-10-13T18:18:45.079Z,16.40
2022-10-13T18:21:14.076Z,16.05
2022-10-13T18:23:42.097Z,18.55
2022-10-13T18:26:12.463Z,16.20
2022-10-13T18:28:40.639Z,14.77
2022-10-13T18:31:10.528Z,14.80
2022-10-13T18:33:38.286Z,15.70
2022-10-13T18:36:16.918Z,14.98
2022-10-13T18:38:44.174Z,14.55
2022-10-13T18:41:11.181Z,14.85
2022-10-13T18:43:38.231Z,14.15
2022-10-13T18:46:05.781Z,14.23
2022-10-13T18:48:34.173Z,13.62
2022-10-13T18:51:06.099Z,14.50
2022-10-13T18:53:37.857Z,14.10
2022-10-13T18:56:10.875Z,15.40
2022-10-13T18:58:39.629Z,15.50
2022-10-13T19:01:08.875Z,15.85
2022-10-13T19:03:37.810Z,15.85
2022-10-13T19:06:06.930Z,16.98
2022-10-13T19:08:34.498Z,15.95
2022-10-13T19:11:01.775Z,15.50
2022-10-13T19:13:31.369Z,15.68
2022-10-13T19:16:02.026Z,16.12
2022-10-13T19:18:29.848Z,15.30
2022-10-13T19:20:56.928Z,16.12
2022-10-13T19:23:24.351Z,16.20
2022-10-13T19:25:54.015Z,16.27
2022-10-13T19:28:21.303Z,16.08
2022-10-13T19:30:48.629Z,16.40
2022-10-13T19:33:16.882Z,16.37
2022-10-13T19:35:53.995Z,15.40
2022-10-13T19:38:21.371Z,16.98
2022-10-13T19:40:49.678Z,17.25
2022-10-13T19:43:17.354Z,16.55
2022-10-13T19:45:57.402Z,17.58
2022-10-13T19:48:27.734Z,17.80
2022-10-13T19:50:55.021Z,15.70
2022-10-13T19:53:22.018Z,16.55
2022-10-13T19:55:49.106Z,16.83
2022-10-13T19:58:17.030Z,17.05
2022-10-13T20:00:45.091Z,16.25
2022-10-13T20:03:13.818Z,16.52
2022-10-13T20:05:46.120Z,17.23
2022-10-13T20:08:13.859Z,18.37
2022-10-13T20:10:42.462Z,16.60
2022-10-13T20:13:10.636Z,16.67
2022-10-13T20:15:43.014Z,17.58
2022-10-13T20:18:13.000Z,16.98
2022-10-13T20:20:41.513Z,16.60
2022-10-13T20:23:09.286Z,16.65
2022-10-13T20:25:38.924Z,16.35
2022-10-13T20:28:06.501Z,16.73
2022-10-13T20:30:33.609Z,16.10
2022-10-13T20:33:00.877Z,15.48
2022-10-13T20:35:28.180Z,15.13
2022-10-13T20:37:55.861Z,16.27
2022-10-13T20:40:22.994Z,14.32
2022-10-13T20:42:53.425Z,15.40
2022-10-13T20:45:20.655Z,14.10
2022-10-13T20:47:48.737Z,14.23
2022-10-13T20:50:16.111Z,14.90
2022-10-13T20:52:43.092Z,14.95
2022-10-13T20:55:10.212Z,13.98
2022-10-13T20:57:37.477Z,14.02
2022-10-13T21:00:05.988Z,13.73
2022-10-13T21:02:32.982Z,13.95
2022-10-13T21:05:00.631Z,13.62
2022-10-13T21:07:28.487Z,13.57
2022-10-13T21:09:55.615Z,14.30
2022-10-13T21:12:22.907Z,14.35
2022-10-13T21:14:49.986Z,14.73
2022-10-13T21:17:16.984Z,14.85
2022-10-13T21:19:44.296Z,13.73
2022-10-13T21:22:11.297Z,14.32
2022-10-13T21:24:38.317Z,15.25
2022-10-13T21:27:05.651Z,14.15
2022-10-13T21:29:32.656Z,14.60
2022-10-13T21:31:59.654Z,15.05
2022-10-13T21:34:26.984Z,15.30
2022-10-13T21:36:53.993Z,15.23
2022-10-13T21:39:20.994Z,15.00
2022-10-13T21:41:48.287Z,15.50
2022-10-13T21:44:15.416Z,15.77
2022-10-13T21:46:42.420Z,17.00
2022-10-13T21:49:09.714Z,14.70
2022-10-13T21:51:39.162Z,15.68
2022-10-13T21:54:09.001Z,16.42
2022-10-13T21:56:37.025Z,16.08
2022-10-13T21:59:04.785Z,16.42
2022-10-13T22:01:32.113Z,15.73
2022-10-13T22:04:01.619Z,15.20
2022-10-13T22:06:29.941Z,16.33
2022-10-13T22:08:58.422Z,15.55
2022-10-13T22:11:28.140Z,16.50
2022-10-13T22:13:58.976Z,16.55
2022-10-13T22:16:32.453Z,16.25
2022-10-13T22:19:00.062Z,16.63
2022-10-13T22:21:30.738Z,15.82
2022-10-13T22:24:02.241Z,15.43
2022-10-13T22:26:36.206Z,16.30
2022-10-13T22:29:04.763Z,16.55
2022-10-13T22:31:33.363Z,16.00
2022-10-13T22:34:05.727Z,16.35
2022-10-13T22:36:33.176Z,15.55
2022-10-13T22:39:02.800Z,15.63
2022-10-13T22:41:31.423Z,14.98
2022-10-13T22:43:59.611Z,16.50
2022-10-13T22:46:30.527Z,15.27
2022-10-13T22:48:58.399Z,15.13
2022-10-13T22:51:28.256Z,16.58
2022-10-13T22:53:55.801Z,14.82
2022-10-13T22:56:25.165Z,13.55
2022-10-13T22:59:00.846Z,15.32
2022-10-13T23:01:28.339Z,15.38
2022-10-13T23:03:56.935Z,15.48
2022-10-13T23:06:26.843Z,13.18
2022-10-13T23:08:53.954Z,14.35
2022-10-13T23:11:21.626Z,14.13
2022-10-13T23:13:49.101Z,13.65
2022-10-13T23:16:19.884Z,14.27
2022-10-13T23:18:47.684Z,14.60
2022-10-13T23:21:22.573Z,12.30
2022-10-13T23:24:02.107Z,13.82
2022-10-13T23:26:29.556Z,13.95
2022-10-13T23:28:57.611Z,13.65
2022-10-13T23:31:25.900Z,13.32
2022-10-13T23:33:53.300Z,13.55
2022-10-13T23:36:22.931Z,13.88
2022-10-13T23:38:55.102Z,13.60
2022-10-13T23:41:22.402Z,13.43
2022-10-13T23:43:49.410Z,14.40
2022-10-13T23:46:16.641Z,13.40
2022-10-13T23:48:43.920Z,13.88
2022-10-13T23:51:14.441Z,13.48
2022-10-13T23:53:42.185Z,13.48
2022-10-13T23:56:11.078Z,13.93
2022-10-13T23:58:39.925Z,13.85
